Time,TemperatureF,DewpointF,PressureIn,WindDirection,WindDirectionDegrees,WindSpeedMPH,WindSpeedGustMPH,Humidity,HourlyPrecipIn,Conditions,Clouds,dailyrainin,SoftwareType,DateUTC
2013-02-15 07:17:00,29.6,25.6,30.12,NNW,344,6.0,6.0,85,0.00,,,0.00,Wunderground v.1.15,2013-02-15 13:17:00,
2013-02-15 07:19:00,29.6,25.6,30.13,NNW,348,6.0,11.0,85,0.00,,,0.00,Wunderground v.1.15,2013-02-15 13:19:00,
2013-02-15 07:20:00,29.6,25.6,30.13,North,360,6.0,11.0,85,0.00,,,0.00,Wunderground v.1.15,2013-02-15 13:20:00,
2013-02-15 07:21:00,29.5,25.5,30.13,NNW,338,6.0,11.0,85,0.00,,,0.00,Wunderground v.1.15,2013-02-15 13:21:00,
2013-02-15 07:27:00,29.4,25.7,30.13,NNW,331,5.0,5.0,86,0.00,,,0.00,Wunderground v.1.15,2013-02-15 13:27:00,
2013-02-15 07:33:00,29.2,25.5,30.13,North,355,5.0,8.0,86,0.00,,,0.00,Wunderground v.1.15,2013-02-15 13:33:00,
2013-02-15 07:39:00,29.0,25.3,30.14,WNW,302,6.0,8.0,86,0.00,,,0.00,Wunderground v.1.15,2013-02-15 13:39:00,
2013-02-15 07:44:00,28.8,25.1,30.14,NW,306,6.0,8.0,86,0.00,,,0.00,Wunderground v.1.15,2013-02-15 13:44:00,
2013-02-15 07:50:00,28.6,24.7,30.14,NW,321,7.0,8.0,85,0.00,,,0.00,Wunderground v.1.15,2013-02-15 13:50:00,
2013-02-15 07:55:00,28.5,24.6,30.14,NNW,339,7.0,9.0,85,0.00,,,0.00,Wunderground v.1.15,2013-02-15 13:55:00,
2013-02-15 08:01:00,28.5,23.7,30.15,NW,324,7.0,7.0,82,0.00,,,0.00,Wunderground v.1.15,2013-02-15 14:01:00,
2013-02-15 08:06:00,28.7,23.3,30.15,NNW,344,7.0,10.0,80,0.00,,,0.00,Wunderground v.1.15,2013-02-15 14:06:00,
2013-02-15 08:11:00,28.8,23.4,30.15,North,350,7.0,7.0,80,0.00,,,0.00,Wunderground v.1.15,2013-02-15 14:11:00,
2013-02-15 08:17:00,29.0,23.3,30.16,NNW,343,6.0,7.0,79,0.00,,,0.00,Wunderground v.1.15,2013-02-15 14:17:00,
2013-02-15 08:22:00,29.2,23.5,30.16,NW,325,6.0,6.0,79,0.00,,,0.00,Wunderground v.1.15,2013-02-15 14:22:00,
2013-02-15 08:28:00,29.1,22.8,30.16,North,355,6.0,8.0,77,0.00,,,0.00,Wunderground v.1.15,2013-02-15 14:28:00,
2013-02-15 08:33:00,29.1,22.8,30.16,NNW,331,7.0,10.0,77,0.00,,,0.00,Wunderground v.1.15,2013-02-15 14:33:00,
2013-02-15 08:39:00,28.7,21.8,30.17,NNW,334,7.0,10.0,75,0.00,,,0.00,Wunderground v.1.15,2013-02-15 14:39:00,
2013-02-15 08:44:00,28.6,22.0,30.17,NNW,342,8.0,11.0,76,0.00,,,0.00,Wunderground v.1.15,2013-02-15 14:44:00,
2013-02-15 08:50:00,28.7,22.7,30.17,North,5,7.0,7.0,78,0.00,,,0.00,Wunderground v.1.15,2013-02-15 14:50:00,
2013-02-15 08:55:00,28.7,22.4,30.17,North,350,6.0,9.0,77,0.00,,,0.00,Wunderground v.1.15,2013-02-15 14:55:00,
2013-02-15 09:01:00,28.9,23.2,30.17,NNW,329,6.0,10.0,79,0.00,,,0.00,Wunderground v.1.15,2013-02-15 15:01:00,
2013-02-15 09:07:00,28.9,23.5,30.18,NW,316,5.0,10.0,80,0.00,,,0.00,Wunderground v.1.15,2013-02-15 15:07:00,
2013-02-15 09:12:00,28.7,23.0,30.18,NW,307,6.0,7.0,79,0.00,,,0.00,Wunderground v.1.15,2013-02-15 15:12:00,
2013-02-15 09:18:00,28.9,22.6,30.18,WNW,295,6.0,10.0,77,0.00,,,0.00,Wunderground v.1.15,2013-02-15 15:18:00,
2013-02-15 09:24:00,28.9,22.6,30.18,NNW,342,6.0,7.0,77,0.00,,,0.00,Wunderground v.1.15,2013-02-15 15:24:00,
2013-02-15 09:30:00,28.7,22.4,30.19,NW,325,6.0,6.0,77,0.00,,,0.00,Wunderground v.1.15,2013-02-15 15:30:00,
2013-02-15 09:36:00,28.6,22.9,30.19,North,349,6.0,11.0,79,0.00,,,0.00,Wunderground v.1.15,2013-02-15 15:36:00,
2013-02-15 09:42:00,28.6,22.6,30.19,NNW,347,7.0,7.0,78,0.00,,,0.00,Wunderground v.1.15,2013-02-15 15:42:00,
2013-02-15 09:47:00,28.7,22.4,30.19,NNW,328,7.0,7.0,77,0.00,,,0.00,Wunderground v.1.15,2013-02-15 15:47:00,
2013-02-15 09:54:00,28.2,21.6,30.19,NNW,331,7.0,7.0,76,0.00,,,0.00,Wunderground v.1.15,2013-02-15 15:54:00,
2013-02-15 09:59:00,28.0,20.8,30.19,WNW,295,7.0,9.0,74,0.00,,,0.00,Wunderground v.1.15,2013-02-15 15:59:00,
2013-02-15 10:04:00,27.9,20.7,30.19,North,360,7.0,9.0,74,0.00,,,0.00,Wunderground v.1.15,2013-02-15 16:04:00,
2013-02-15 10:10:00,28.4,20.8,30.19,NW,319,6.0,6.0,73,0.00,,,0.00,Wunderground v.1.15,2013-02-15 16:10:00,
2013-02-15 10:16:00,28.5,20.0,30.19,NW,316,6.0,8.0,70,0.00,,,0.00,Wunderground v.1.15,2013-02-15 16:16:00,
2013-02-15 10:22:00,28.5,19.6,30.19,NNE,16,6.0,10.0,69,0.00,,,0.00,Wunderground v.1.15,2013-02-15 16:22:00,
2013-02-15 10:27:00,28.3,19.1,30.19,NW,314,7.0,10.0,68,0.00,,,0.00,Wunderground v.1.15,2013-02-15 16:27:00,
2013-02-15 10:33:00,28.3,18.0,30.19,North,355,7.0,11.0,65,0.00,,,0.00,Wunderground v.1.15,2013-02-15 16:33:00,
2013-02-15 10:38:00,28.4,18.5,30.20,North,351,7.0,11.0,66,0.00,,,0.00,Wunderground v.1.15,2013-02-15 16:38:00,
2013-02-15 10:43:00,28.1,16.7,30.20,NNE,13,7.0,9.0,62,0.00,,,0.00,Wunderground v.1.15,2013-02-15 16:43:00,
2013-02-15 10:49:00,27.9,16.9,30.20,North,350,8.0,10.0,63,0.00,,,0.00,Wunderground v.1.15,2013-02-15 16:49:00,
2013-02-15 10:55:00,28.1,18.2,30.20,NW,326,8.0,10.0,66,0.00,,,0.00,Wunderground v.1.15,2013-02-15 16:55:00,
2013-02-15 11:00:00,28.5,19.3,30.19,NW,319,7.0,8.0,68,0.00,,,0.00,Wunderground v.1.15,2013-02-15 17:00:00,
2013-02-15 11:06:00,28.8,17.8,30.20,NW,318,7.0,11.0,63,0.00,,,0.00,Wunderground v.1.15,2013-02-15 17:06:00,
2013-02-15 11:12:00,29.2,17.4,30.20,NNW,327,7.0,10.0,61,0.00,,,0.00,Wunderground v.1.15,2013-02-15 17:12:00,
2013-02-15 11:17:00,29.4,16.8,30.20,NW,319,7.0,13.0,59,0.00,,,0.00,Wunderground v.1.15,2013-02-15 17:17:00,
2013-02-15 11:23:00,29.3,16.3,30.20,North,5,7.0,14.0,58,0.00,,,0.00,Wunderground v.1.15,2013-02-15 17:23:00,
2013-02-15 11:28:00,29.2,17.0,30.20,NNW,328,8.0,14.0,60,0.00,,,0.00,Wunderground v.1.15,2013-02-15 17:28:00,
2013-02-15 11:34:00,29.7,17.9,30.20,NW,317,6.0,8.0,61,0.00,,,0.00,Wunderground v.1.15,2013-02-15 17:34:00,
2013-02-15 11:40:00,30.1,17.5,30.20,North,360,6.0,11.0,59,0.00,,,0.00,Wunderground v.1.15,2013-02-15 17:40:00,
2013-02-15 11:46:00,29.9,17.3,30.20,NW,323,6.0,11.0,59,0.00,,,0.00,Wunderground v.1.15,2013-02-15 17:46:00,
2013-02-15 11:51:00,30.3,18.1,30.19,NW,306,5.0,8.0,60,0.00,,,0.00,Wunderground v.1.15,2013-02-15 17:51:00,
2013-02-15 11:57:00,30.5,18.3,30.19,NW,319,6.0,10.0,60,0.00,,,0.00,Wunderground v.1.15,2013-02-15 17:57:00,
2013-02-15 12:02:00,30.8,18.9,30.19,NNW,348,6.0,8.0,61,0.00,,,0.00,Wunderground v.1.15,2013-02-15 18:02:00,
2013-02-15 12:08:00,31.0,17.9,30.19,North,5,6.0,9.0,58,0.00,,,0.00,Wunderground v.1.15,2013-02-15 18:08:00,
2013-02-15 12:13:00,31.2,19.3,30.19,NNW,338,6.0,8.0,61,0.00,,,0.00,Wunderground v.1.15,2013-02-15 18:13:00,
2013-02-15 12:19:00,31.2,18.5,30.19,NW,321,6.0,8.0,59,0.00,,,0.00,Wunderground v.1.15,2013-02-15 18:19:00,
2013-02-15 12:25:00,31.1,17.6,30.19,NNW,329,5.0,6.0,57,0.00,,,0.00,Wunderground v.1.15,2013-02-15 18:25:00,
2013-02-15 12:31:00,30.9,18.6,30.19,NW,317,6.0,6.0,60,0.00,,,0.00,Wunderground v.1.15,2013-02-15 18:31:00,
2013-02-15 12:36:00,30.9,18.2,30.19,NW,321,7.0,8.0,59,0.00,,,0.00,Wunderground v.1.15,2013-02-15 18:36:00,
2013-02-15 12:42:00,31.2,18.1,30.18,NW,318,6.0,6.0,58,0.00,,,0.00,Wunderground v.1.15,2013-02-15 18:42:00,
2013-02-15 12:47:00,31.2,18.5,30.18,WNW,296,6.0,8.0,59,0.00,,,0.00,Wunderground v.1.15,2013-02-15 18:47:00,
2013-02-15 12:53:00,31.5,18.8,30.18,WNW,291,6.0,7.0,59,0.00,,,0.00,Wunderground v.1.15,2013-02-15 18:53:00,
2013-02-15 12:59:00,31.5,17.6,30.18,North,355,6.0,10.0,56,0.00,,,0.00,Wunderground v.1.15,2013-02-15 18:59:00,
2013-02-15 13:05:00,31.8,18.7,30.18,NW,311,6.0,9.0,58,0.00,,,0.00,Wunderground v.1.15,2013-02-15 19:05:00,
2013-02-15 13:10:00,32.1,18.6,30.18,NW,305,6.0,6.0,57,0.00,,,0.00,Wunderground v.1.15,2013-02-15 19:10:00,
2013-02-15 13:16:00,32.1,19.8,30.18,North,5,6.0,15.0,60,0.00,,,0.00,Wunderground v.1.15,2013-02-15 19:16:00,
2013-02-15 13:21:00,31.8,18.7,30.18,NW,308,7.0,7.0,58,0.00,,,0.00,Wunderground v.1.15,2013-02-15 19:21:00,
2013-02-15 13:27:00,32.1,18.6,30.18,WNW,303,6.0,7.0,57,0.00,,,0.00,Wunderground v.1.15,2013-02-15 19:27:00,
2013-02-15 13:33:00,32.1,19.8,30.18,NW,326,6.0,7.0,60,0.00,,,0.00,Wunderground v.1.15,2013-02-15 19:33:00,
2013-02-15 13:38:00,32.4,19.3,30.18,WNW,292,6.0,8.0,58,0.00,,,0.00,Wunderground v.1.15,2013-02-15 19:38:00,
2013-02-15 13:44:00,32.3,19.6,30.17,NW,323,6.0,6.0,59,0.00,,,0.00,Wunderground v.1.15,2013-02-15 19:44:00,
2013-02-15 13:50:00,32.7,19.9,30.17,NW,306,5.0,5.0,59,0.00,,,0.00,Wunderground v.1.15,2013-02-15 19:50:00,
2013-02-15 13:56:00,32.5,19.7,30.17,NW,313,5.0,7.0,59,0.00,,,0.00,Wunderground v.1.15,2013-02-15 19:56:00,
2013-02-15 14:02:00,32.6,20.2,30.17,WNW,291,6.0,10.0,60,0.00,,,0.00,Wunderground v.1.15,2013-02-15 20:02:00,
2013-02-15 14:08:00,32.8,18.8,30.17,WNW,293,6.0,10.0,56,0.00,,,0.00,Wunderground v.1.15,2013-02-15 20:08:00,
2013-02-15 14:13:00,32.9,20.1,30.17,WNW,293,6.0,7.0,59,0.00,,,0.00,Wunderground v.1.15,2013-02-15 20:13:00,
2013-02-15 14:19:00,32.7,17.4,30.17,North,355,6.0,14.0,53,0.00,,,0.00,Wunderground v.1.15,2013-02-15 20:19:00,
2013-02-15 14:25:00,32.6,19.4,30.17,NW,313,6.0,6.0,58,0.00,,,0.00,Wunderground v.1.15,2013-02-15 20:25:00,
2013-02-15 14:31:00,32.9,19.7,30.17,NW,304,5.0,6.0,58,0.00,,,0.00,Wunderground v.1.15,2013-02-15 20:31:00,
2013-02-15 14:36:00,33.1,19.5,30.17,WNW,291,5.0,6.0,57,0.00,,,0.00,Wunderground v.1.15,2013-02-15 20:36:00,
2013-02-15 14:42:00,33.1,18.7,30.17,NNW,327,6.0,7.0,55,0.00,,,0.00,Wunderground v.1.15,2013-02-15 20:42:00,
2013-02-15 14:49:00,32.9,18.1,30.18,WNW,302,5.0,7.0,54,0.00,,,0.00,Wunderground v.1.15,2013-02-15 20:49:00,
2013-02-15 14:54:00,32.9,18.5,30.18,WNW,290,5.0,9.0,55,0.00,,,0.00,Wunderground v.1.15,2013-02-15 20:54:00,
2013-02-15 14:59:00,33.0,19.0,30.18,West,277,6.0,9.0,56,0.00,,,0.00,Wunderground v.1.15,2013-02-15 20:59:00,
2013-02-15 15:05:00,33.0,17.7,30.18,NW,311,6.0,7.0,53,0.00,,,0.00,Wunderground v.1.15,2013-02-15 21:05:00,
2013-02-15 15:11:00,33.1,19.9,30.18,NW,325,5.0,6.0,58,0.00,,,0.00,Wunderground v.1.15,2013-02-15 21:11:00,
2013-02-15 15:17:00,33.1,18.2,30.18,NW,319,5.0,8.0,54,0.00,,,0.00,Wunderground v.1.15,2013-02-15 21:17:00,
2013-02-15 15:22:00,33.2,18.8,30.18,NNW,330,5.0,5.0,55,0.00,,,0.00,Wunderground v.1.15,2013-02-15 21:22:00,
2013-02-15 15:29:00,33.2,18.8,30.18,NW,314,4.0,7.0,55,0.00,,,0.00,Wunderground v.1.15,2013-02-15 21:29:00,
2013-02-15 15:34:00,33.3,19.7,30.18,WNW,288,5.0,6.0,57,0.00,,,0.00,Wunderground v.1.15,2013-02-15 21:34:00,
2013-02-15 15:39:00,33.1,19.5,30.18,WNW,292,6.0,9.0,57,0.00,,,0.00,Wunderground v.1.15,2013-02-15 21:39:00,
2013-02-15 15:45:00,33.2,18.8,30.18,West,278,6.0,8.0,55,0.00,,,0.00,Wunderground v.1.15,2013-02-15 21:45:00,
2013-02-15 15:51:00,33.2,19.2,30.18,West,263,5.0,6.0,56,0.00,,,0.00,Wunderground v.1.15,2013-02-15 21:51:00,
2013-02-15 15:56:00,33.1,18.2,30.18,WNW,286,5.0,6.0,54,0.00,,,0.00,Wunderground v.1.15,2013-02-15 21:56:00,
2013-02-15 16:02:00,32.6,18.2,30.18,NW,313,4.0,6.0,55,0.00,,,0.00,Wunderground v.1.15,2013-02-15 22:02:00,
2013-02-15 16:09:00,32.5,18.5,30.18,WNW,300,5.0,7.0,56,0.00,,,0.00,Wunderground v.1.15,2013-02-15 22:09:00,
2013-02-15 16:14:00,32.7,18.7,30.18,NW,326,5.0,6.0,56,0.00,,,0.00,Wunderground v.1.15,2013-02-15 22:14:00,
2013-02-15 16:20:00,33.0,19.8,30.18,WNW,289,5.0,7.0,58,0.00,,,0.00,Wunderground v.1.15,2013-02-15 22:20:00,
2013-02-15 16:26:00,32.5,19.3,30.18,NW,304,6.0,8.0,58,0.00,,,0.00,Wunderground v.1.15,2013-02-15 22:26:00,
2013-02-15 16:31:00,32.5,19.3,30.18,WNW,294,6.0,7.0,58,0.00,,,0.00,Wunderground v.1.15,2013-02-15 22:31:00,
2013-02-15 16:37:00,32.3,19.6,30.18,NW,306,5.0,7.0,59,0.00,,,0.00,Wunderground v.1.15,2013-02-15 22:37:00,
2013-02-15 16:42:00,32.2,19.1,30.18,WNW,299,5.0,6.0,58,0.00,,,0.00,Wunderground v.1.15,2013-02-15 22:42:00,
2013-02-15 16:48:00,32.0,19.7,30.18,WNW,290,5.0,7.0,60,0.00,,,0.00,Wunderground v.1.15,2013-02-15 22:48:00,